No particular awareness of the weather is required.    There are no Weather-warnings


Meteo18 Weather Cam more information Meteo18 Weather Cam


Thunder radar more information blitzortung!


Rain radar more information rain snow radar


Visit our other weather sites:

Template documentation
and downloads

And another site



Weather Underground History page Text

Daily Summary for January 10, 2018 Units:  Metric    English   Both
« Previous Day
Next Day »
Daily Weekly Monthly Yearly Custom
  High: Low: Average:
Temperature: -17.8 °C -15.1 °C -14 °C
Dew Point: -17.8 °C -15.7 °C -14.6 °C
Humidity: Humidity % 88 % 92 %
Wind Speed: 0 km/h 0 km/h 8.7 km/h
Wind Gust: 0 km/h - -
Wind:- - SW
Pressure: 0 hPa 34164.7 hPa -
Precipitation: 167.64 mm    
Historical Graphs
 
 
Tabular Data for January 10, 2018
Time Temperature Dew Point Pressure Wind Wind Speed Wind Gust Humidity Rainfall Rate (Hourly)
-17.8 °C -17.8 °C 0 hPa Calm     Humidity % 0 mm
03:04 -15 °C -15.7 °C 34212.1 hPa SSW 2.3 km/h 12.9 km/h 92 % 0 mm
05:15 -15.1 °C -15.6 °C 34188.4 hPa Calm   5.1 km/h 94 % 25.4 mm
07:11 -14.8 °C -15.2 °C 34188.4 hPa WSW 10.3 km/h 12.9 km/h 96 % 12.7 mm
07:51 -14.7 °C -14.9 °C 34188.4 hPa SSW 10.3 km/h 15.6 km/h 97 % 7.62 mm
11:58 -13.8 °C -13.9 °C 34222.3 hPa SSW 7.6 km/h 15.6 km/h 98 % 12.7 mm
14:04 -13.5 °C -13.8 °C 34178.3 hPa SSW 17.9 km/h 31.1 km/h 96 % 7.62 mm
15:10 -13.3 °C -13.6 °C 34164.7 hPa SW 20.9 km/h 23.3 km/h 96 % 0 mm
15:14 -13.2 °C -13.7 °C 34164.7 hPa SW 23 km/h 33.6 km/h 95 % 0 mm
15:20 -13.2 °C -13.7 °C 34164.7 hPa SSW 15.6 km/h 38.8 km/h 94 % 0 mm
15:21 -13.2 °C -13.7 °C 34164.7 hPa SW 26.2 km/h 36.2 km/h 95 % 0 mm
15:24 -13.2 °C -13.7 °C 34164.7 hPa SW 28.5 km/h 38.8 km/h 94 % 0 mm
15:28 -13.2 °C -13.8 °C 34164.7 hPa SW 20.9 km/h 28.5 km/h 93 % 0 mm
15:30 -13.2 °C -13.8 °C 34164.7 hPa SW 26.2 km/h 33.6 km/h 93 % 0 mm
15:34 -13.2 °C -13.8 °C 34178.3 hPa SW 12.7 km/h 31.1 km/h 93 % 0 mm
15:38 -13.2 °C -13.8 °C 34164.7 hPa SW 17.9 km/h 20.8 km/h 93 % 0 mm
15:44 -13.1 °C -13.7 °C 34164.7 hPa WSW 17.9 km/h 31.1 km/h 93 % 0 mm
15:46 -13.1 °C -13.7 °C 34164.7 hPa WSW 15.6 km/h 33.6 km/h 93 % 0 mm
15:54 -13.1 °C -13.7 °C 34178.3 hPa SW 15.6 km/h 31.1 km/h 93 % 7.62 mm
15:56 -13.1 °C -13.7 °C 34178.3 hPa SW 12.7 km/h 31.1 km/h 93 % 7.62 mm
16:00 -13 °C -13.6 °C 34178.3 hPa SW 12.7 km/h 23.3 km/h 93 % 7.62 mm
16:04 -13.1 °C -13.7 °C 34178.3 hPa SW 20.9 km/h 28.5 km/h 93 % 7.62 mm
16:06 -13.1 °C -13.7 °C 34178.3 hPa SSW 12.7 km/h 20.8 km/h 93 % 7.62 mm
16:12 -13.2 °C -13.8 °C 34178.3 hPa SW 15.6 km/h 25.9 km/h 93 % 7.62 mm
16:18 -13.2 °C -13.8 °C 34178.3 hPa West 12.7 km/h 12.9 km/h 93 % 7.62 mm
16:22 -13.2 °C -13.8 °C 34178.3 hPa West 7.6 km/h 15.6 km/h 93 % 7.62 mm
16:24 -13.2 °C -13.8 °C 34178.3 hPa WSW 2.3 km/h 7.7 km/h 93 % 7.62 mm
16:30 -13.2 °C -13.7 °C 34188.4 hPa WSW 10.3 km/h 18.2 km/h 94 % 12.7 mm
16:36 -13.4 °C -14.2 °C 34178.3 hPa SSW 10.3 km/h 25.9 km/h 90 % 20.32 mm
16:40 -13.4 °C -14.4 °C 34178.3 hPa SW 17.9 km/h 23.3 km/h 89 % 20.32 mm
16:46 -13.4 °C -14.4 °C 34178.3 hPa SW 20.9 km/h 25.9 km/h 89 % 20.32 mm
16:48 -13.4 °C -14.5 °C 34178.3 hPa SW 17.9 km/h 25.9 km/h 88 % 12.7 mm
16:56 -13.6 °C -14.6 °C 34188.4 hPa SW 10.3 km/h 20.8 km/h 88 % 12.7 mm
16:58 -13.6 °C -14.6 °C 34188.4 hPa SW 23 km/h 23.3 km/h 88 % 12.7 mm
17:04 -13.6 °C -14.7 °C 34188.4 hPa SW 15.6 km/h 15.6 km/h 88 % 12.7 mm
17:10 -13.7 °C -14.7 °C 34188.4 hPa SW 7.6 km/h 15.6 km/h 88 % 12.7 mm
17:18 -13.7 °C -14.7 °C 34188.4 hPa WSW 7.6 km/h 15.6 km/h 89 % 12.7 mm
17:24 -13.8 °C -14.6 °C 34188.4 hPa West 12.7 km/h 12.9 km/h 90 % 12.7 mm
17:30 -13.8 °C -14.6 °C 34188.4 hPa WSW 5.1 km/h 18.2 km/h 91 % 7.62 mm
17:38 -13.7 °C -14.5 °C 34188.4 hPa SW 5.1 km/h 12.9 km/h 91 % 0 mm
17:42 -13.7 °C -14.5 °C 34188.4 hPa WSW 7.6 km/h 10.3 km/h 91 % 0 mm
17:48 -13.7 °C -14.5 °C 34188.4 hPa WSW 7.6 km/h 7.7 km/h 91 % 0 mm
17:52 -13.7 °C -14.5 °C 34188.4 hPa WSW 7.6 km/h 12.9 km/h 91 % 0 mm
17:58 -13.7 °C -14.5 °C 34188.4 hPa West 5.1 km/h 7.7 km/h 91 % 0 mm
18:04 -13.7 °C -14.4 °C 34188.4 hPa SW 7.6 km/h 10.3 km/h 91 % 0 mm
18:10 -13.6 °C -14.4 °C 34188.4 hPa SSW 7.6 km/h 10.3 km/h 91 % 0 mm
18:17 -13.7 °C -14.4 °C 34188.4 hPa SSW 7.6 km/h 7.7 km/h 91 % 0 mm
18:22 -13.8 °C -14.4 °C 34198.6 hPa SSW 23 km/h 31.1 km/h 93 % 12.7 mm
18:28 -13.8 °C -14.4 °C 34198.6 hPa WSW 20.9 km/h 25.9 km/h 93 % 12.7 mm
18:34 -13.8 °C -14.6 °C 34198.6 hPa West 15.6 km/h 25.9 km/h 91 % 20.32 mm
18:42 -13.9 °C -14.7 °C 34198.6 hPa WSW 20.9 km/h 28.5 km/h 91 % 33.02 mm
18:48 -14 °C -14.7 °C 34198.6 hPa SSW 10.3 km/h 15.6 km/h 92 % 33.02 mm
18:57 -14.1 °C -14.7 °C 34198.6 hPa SW 10.3 km/h 12.9 km/h 92 % 33.02 mm
19:03 -14.1 °C -14.8 °C 34198.6 hPa SSW 12.7 km/h 18.2 km/h 91 % 33.02 mm
19:11 -14 °C -14.8 °C 34198.6 hPa SW 7.6 km/h 20.8 km/h 90 % 33.02 mm
19:17 -14 °C -14.8 °C 34198.6 hPa WSW 15.6 km/h 20.8 km/h 90 % 33.02 mm
19:23 -13.9 °C -14.9 °C 34198.6 hPa South 7.6 km/h 15.6 km/h 89 % 20.32 mm
19:29 -14.1 °C -14.9 °C 34198.6 hPa SSW 5.1 km/h 7.7 km/h 90 % 12.7 mm
19:35 -14.1 °C -14.8 °C 34198.6 hPa SSW 2.3 km/h 5.1 km/h 92 % 12.7 mm
19:41 -14.2 °C -14.9 °C 34198.6 hPa SSW 2.3 km/h 2.6 km/h 92 % 7.62 mm
19:59 -14.3 °C -14.8 °C 34212.1 hPa Calm   5.1 km/h 94 % 0 mm
20:05 -14.2 °C -14.7 °C 34212.1 hPa WSW 5.1 km/h 7.7 km/h 94 % 7.62 mm
20:11 -14.2 °C -14.8 °C 34212.1 hPa WSW 5.1 km/h 12.9 km/h 93 % 7.62 mm
20:17 -14.2 °C -14.8 °C 34212.1 hPa SW 2.3 km/h 7.7 km/h 93 % 7.62 mm
20:23 -14.1 °C -14.8 °C 34212.1 hPa Calm   7.7 km/h 92 % 7.62 mm
20:29 -14.2 °C -14.8 °C 34212.1 hPa SSW 2.3 km/h 2.6 km/h 92 % 7.62 mm
20:37 -14.2 °C -14.9 °C 34212.1 hPa Calm   5.1 km/h 92 % 7.62 mm
20:43 -14.3 °C -14.8 °C 34212.1 hPa South 5.1 km/h 5.1 km/h 93 % 7.62 mm
20:49 -14.3 °C -14.9 °C 34212.1 hPa Calm   2.6 km/h 93 % 7.62 mm
20:55 -14.3 °C -14.9 °C 34212.1 hPa SW 5.1 km/h 5.1 km/h 93 % 7.62 mm
21:03 -14.4 °C -14.9 °C 34198.6 hPa SSE 2.3 km/h 2.6 km/h 94 % 0 mm
21:07 -14.4 °C -14.9 °C 34198.6 hPa Calm   2.6 km/h 94 % 0 mm
21:13 -14.4 °C -14.9 °C 34212.1 hPa SSW 2.3 km/h 5.1 km/h 94 % 0 mm
21:19 -14.5 °C -15 °C 34212.1 hPa SW 5.1 km/h 7.7 km/h 94 % 0 mm
21:25 -14.5 °C -14.9 °C 34212.1 hPa SSW 5.1 km/h 12.9 km/h 95 % 0 mm
21:33 -14.5 °C -14.9 °C 34212.1 hPa SW 2.3 km/h 5.1 km/h 95 % 0 mm
21:39 -14.5 °C -14.9 °C 34212.1 hPa SSW 2.3 km/h 5.1 km/h 95 % 0 mm
21:45 -14.5 °C -14.9 °C 34212.1 hPa Calm   2.6 km/h 95 % 0 mm
21:51 -14.5 °C -14.9 °C 34212.1 hPa Calm   5.1 km/h 95 % 0 mm
21:57 -14.5 °C -14.9 °C 34212.1 hPa Calm   5.1 km/h 95 % 0 mm
22:03 -14.5 °C -14.9 °C 34212.1 hPa SW 2.3 km/h 7.7 km/h 95 % 0 mm
22:09 -14.4 °C -14.8 °C 34212.1 hPa SW 7.6 km/h 10.3 km/h 95 % 0 mm
22:15 -14.3 °C -14.8 °C 34212.1 hPa SW 10.3 km/h 10.3 km/h 94 % 0 mm
22:21 -14.3 °C -14.8 °C 34212.1 hPa SW 7.6 km/h 15.6 km/h 94 % 0 mm
22:27 -14.3 °C -14.8 °C 34212.1 hPa SW 7.6 km/h 10.3 km/h 94 % 0 mm
22:33 -14.3 °C -14.9 °C 34212.1 hPa SW 7.6 km/h 10.3 km/h 93 % 0 mm
22:39 -14.4 °C -14.9 °C 34212.1 hPa SSW 2.3 km/h 10.3 km/h 93 % 0 mm
22:45 -14.6 °C -15.1 °C 34212.1 hPa SSW 2.3 km/h 7.7 km/h 93 % 0 mm
22:51 -14.7 °C -15.2 °C 34212.1 hPa SSW 2.3 km/h 2.6 km/h 93 % 0 mm
22:59 -14.7 °C -15.2 °C 34222.3 hPa Calm     94 % 0 mm
23:05 -14.8 °C -15.3 °C 34212.1 hPa Calm     94 % 0 mm
23:11 -14.8 °C -15.2 °C 34212.1 hPa Calm   2.6 km/h 95 % 0 mm
23:17 -14.8 °C -15.2 °C 34212.1 hPa Calm   2.6 km/h 95 % 0 mm
23:26 -14.9 °C -15.3 °C 34212.1 hPa East 2.3 km/h 2.6 km/h 95 % 0 mm
23:32 -14.9 °C -15.3 °C 34212.1 hPa NE 2.3 km/h 5.1 km/h 95 % 0 mm
23:38 -14.9 °C -15.3 °C 34222.3 hPa Calm   2.6 km/h 96 % 0 mm
23:44 -14.9 °C -15.3 °C 34212.1 hPa Calm   2.6 km/h 96 % 0 mm
23:50 -14.9 °C -15.3 °C 34212.1 hPa Calm     96 % 0 mm
23:56 -15.1 °C -15.4 °C 34212.1 hPa Calm     95 % 0 mm
Meteo18
Compliments of Weather Underground - 4 mb

Script developed by  Jim McMurry - jmcmurry@mwt.net Adapted for the template by  Wim van der Kuil - Leuven-Template.eu

You find our weather info also at:

European Weather Network

Weather Underground

Equipment we use:

Weather-station
Davis Vue

Weather-program
Meteobridge

Weather-server
Raspberry PI 2 B+

Provider
1 and 1

Davis Vue

Meteobridge

Raspberry PI 2 B+

1 and 1